sensor_id;sensor_type;location;lat;lon;timestamp;pressure;altitude;pressure_sealevel;temperature;humidity
18527;BME280;9393;42.158;24.748;2023-05-22T00:02:29;99214.06;;;18.99;83.17
18527;BME280;9393;42.158;24.748;2023-05-22T00:05:36;99214.88;;;18.93;83.64
18527;BME280;9393;42.158;24.748;2023-05-22T00:08:42;99214.88;;;18.93;83.42
18527;BME280;9393;42.158;24.748;2023-05-22T00:11:47;99211.22;;;18.81;84.32
18527;BME280;9393;42.158;24.748;2023-05-22T00:14:50;99210.63;;;18.99;83.50
18527;BME280;9393;42.158;24.748;2023-05-22T00:17:54;99212.44;;;19.05;83.06
18527;BME280;9393;42.158;24.748;2023-05-22T00:21:00;99214.25;;;18.78;84.71
18527;BME280;9393;42.158;24.748;2023-05-22T00:24:04;99218.53;;;18.99;83.42
18527;BME280;9393;42.158;24.748;2023-05-22T00:27:09;99212.03;;;18.95;82.93
18527;BME280;9393;42.158;24.748;2023-05-22T00:30:13;99209.59;;;18.93;82.88
18527;BME280;9393;42.158;24.748;2023-05-22T00:33:17;99211.22;;;18.68;83.61
18527;BME280;9393;42.158;24.748;2023-05-22T00:36:22;99221.16;;;18.79;82.84
18527;BME280;9393;42.158;24.748;2023-05-22T00:39:26;99230.72;;;18.87;82.47
18527;BME280;9393;42.158;24.748;2023-05-22T00:42:30;99227.25;;;18.86;82.34
18527;BME280;9393;42.158;24.748;2023-05-22T00:45:35;99220.56;;;18.84;82.30
18527;BME280;9393;42.158;24.748;2023-05-22T00:48:39;99225.41;;;18.67;83.13
18527;BME280;9393;42.158;24.748;2023-05-22T00:51:44;99226.22;;;18.61;82.94
18527;BME280;9393;42.158;24.748;2023-05-22T00:54:49;99225.00;;;18.70;82.88
18527;BME280;9393;42.158;24.748;2023-05-22T00:57:53;99220.97;;;18.87;82.38
18527;BME280;9393;42.158;24.748;2023-05-22T01:00:57;99224.44;;;19.01;81.51
18527;BME280;9393;42.158;24.748;2023-05-22T01:04:03;99223.19;;;18.97;81.92
18527;BME280;9393;42.158;24.748;2023-05-22T01:07:10;99218.94;;;19.09;81.14
18527;BME280;9393;42.158;24.748;2023-05-22T01:10:14;99224.44;;;18.94;81.96
18527;BME280;9393;42.158;24.748;2023-05-22T01:13:25;99236.00;;;19.00;81.52
18527;BME280;9393;42.158;24.748;2023-05-22T01:16:38;99221.78;;;19.07;81.04
18527;BME280;9393;42.158;24.748;2023-05-22T01:19:58;99227.47;;;19.04;81.53
18527;BME280;9393;42.158;24.748;2023-05-22T01:23:40;99219.56;;;18.98;81.83
18527;BME280;9393;42.158;24.748;2023-05-22T01:30:49;99213.66;;;19.15;80.35
18527;BME280;9393;42.158;24.748;2023-05-22T01:34:01;99221.78;;;19.01;80.93
18527;BME280;9393;42.158;24.748;2023-05-22T01:37:07;99212.44;;;18.79;81.78
18527;BME280;9393;42.158;24.748;2023-05-22T01:40:12;99204.72;;;18.77;81.86
18527;BME280;9393;42.158;24.748;2023-05-22T01:43:17;99203.88;;;18.83;82.01
18527;BME280;9393;42.158;24.748;2023-05-22T01:46:26;99212.44;;;18.85;81.84
18527;BME280;9393;42.158;24.748;2023-05-22T01:49:31;99207.94;;;18.79;81.91
18527;BME280;9393;42.158;24.748;2023-05-22T01:52:41;99207.34;;;18.77;81.86
18527;BME280;9393;42.158;24.748;2023-05-22T01:55:52;99205.31;;;18.79;81.45
18527;BME280;9393;42.158;24.748;2023-05-22T01:59:03;99208.16;;;18.78;82.11
18527;BME280;9393;42.158;24.748;2023-05-22T02:02:14;99215.09;;;18.92;81.31
18527;BME280;9393;42.158;24.748;2023-05-22T02:05:19;99211.44;;;18.99;80.86
18527;BME280;9393;42.158;24.748;2023-05-22T02:08:25;99209.59;;;19.06;80.23
18527;BME280;9393;42.158;24.748;2023-05-22T02:11:31;99213.84;;;19.07;80.25
18527;BME280;9393;42.158;24.748;2023-05-22T02:14:36;99215.47;;;19.08;80.09
18527;BME280;9393;42.158;24.748;2023-05-22T02:17:42;99206.75;;;19.01;80.92
18527;BME280;9393;42.158;24.748;2023-05-22T02:20:46;99216.50;;;18.88;81.96
18527;BME280;9393;42.158;24.748;2023-05-22T02:23:50;99213.84;;;18.75;82.77
18527;BME280;9393;42.158;24.748;2023-05-22T02:26:54;99215.09;;;18.85;82.19
18527;BME280;9393;42.158;24.748;2023-05-22T02:29:59;99214.06;;;18.99;81.53
18527;BME280;9393;42.158;24.748;2023-05-22T02:33:05;99217.31;;;19.08;80.70
18527;BME280;9393;42.158;24.748;2023-05-22T02:36:10;99219.34;;;19.12;79.76
18527;BME280;9393;42.158;24.748;2023-05-22T02:39:16;99229.69;;;19.21;79.72
18527;BME280;9393;42.158;24.748;2023-05-22T02:42:20;99221.34;;;19.17;79.69
18527;BME280;9393;42.158;24.748;2023-05-22T02:45:24;99222.59;;;19.14;79.93
18527;BME280;9393;42.158;24.748;2023-05-22T02:48:29;99220.56;;;19.10;80.42
18527;BME280;9393;42.158;24.748;2023-05-22T02:51:33;99220.38;;;18.92;81.96
18527;BME280;9393;42.158;24.748;2023-05-22T02:54:38;99215.91;;;19.05;80.94
18527;BME280;9393;42.158;24.748;2023-05-22T02:57:42;99218.13;;;19.08;80.94
18527;BME280;9393;42.158;24.748;2023-05-22T03:00:46;99215.91;;;19.12;80.12
18527;BME280;9393;42.158;24.748;2023-05-22T03:03:51;99217.31;;;19.01;80.45
18527;BME280;9393;42.158;24.748;2023-05-22T03:06:56;99222.41;;;19.09;79.69
18527;BME280;9393;42.158;24.748;2023-05-22T03:10:02;99215.91;;;19.12;79.40
18527;BME280;9393;42.158;24.748;2023-05-22T03:13:06;99219.75;;;19.09;79.88
18527;BME280;9393;42.158;24.748;2023-05-22T03:16:10;99222.00;;;19.12;79.55
18527;BME280;9393;42.158;24.748;2023-05-22T03:19:20;99222.41;;;19.09;79.35
18527;BME280;9393;42.158;24.748;2023-05-22T03:22:25;99219.94;;;19.08;79.46
18527;BME280;9393;42.158;24.748;2023-05-22T03:25:29;99216.31;;;19.09;79.40
18527;BME280;9393;42.158;24.748;2023-05-22T03:28:33;99219.94;;;19.08;79.37
18527;BME280;9393;42.158;24.748;2023-05-22T03:31:37;99217.72;;;19.11;79.45
18527;BME280;9393;42.158;24.748;2023-05-22T03:34:46;99223.00;;;18.98;80.03
18527;BME280;9393;42.158;24.748;2023-05-22T03:37:50;99219.75;;;19.16;79.38
18527;BME280;9393;42.158;24.748;2023-05-22T03:40:54;99213.84;;;19.21;79.10
18527;BME280;9393;42.158;24.748;2023-05-22T03:43:58;99226.88;;;19.22;78.88
18527;BME280;9393;42.158;24.748;2023-05-22T03:47:02;99222.00;;;19.06;79.87
18527;BME280;9393;42.158;24.748;2023-05-22T03:50:09;99222.19;;;18.98;80.21
18527;BME280;9393;42.158;24.748;2023-05-22T03:53:13;99226.06;;;19.15;79.66
18527;BME280;9393;42.158;24.748;2023-05-22T03:56:17;99227.47;;;19.17;79.32
18527;BME280;9393;42.158;24.748;2023-05-22T03:59:22;99227.47;;;19.50;78.27
18527;BME280;9393;42.158;24.748;2023-05-22T04:02:26;99228.09;;;19.46;77.87
18527;BME280;9393;42.158;24.748;2023-05-22T04:05:33;99229.31;;;19.43;77.56
18527;BME280;9393;42.158;24.748;2023-05-22T04:08:37;99229.31;;;19.50;76.93
18527;BME280;9393;42.158;24.748;2023-05-22T04:11:41;99227.25;;;19.26;78.57
18527;BME280;9393;42.158;24.748;2023-05-22T04:14:45;99230.72;;;19.33;77.77
18527;BME280;9393;42.158;24.748;2023-05-22T04:17:49;99235.19;;;19.39;77.47
18527;BME280;9393;42.158;24.748;2023-05-22T04:20:55;99231.97;;;19.43;77.51
18527;BME280;9393;42.158;24.748;2023-05-22T04:23:59;99227.69;;;19.42;77.71
18527;BME280;9393;42.158;24.748;2023-05-22T04:27:08;99234.78;;;19.42;77.61
18527;BME280;9393;42.158;24.748;2023-05-22T04:30:14;99222.78;;;18.87;80.57
18527;BME280;9393;42.158;24.748;2023-05-22T04:33:19;99230.13;;;18.91;80.71
18527;BME280;9393;42.158;24.748;2023-05-22T04:36:26;99229.13;;;18.86;81.25
18527;BME280;9393;42.158;24.748;2023-05-22T04:39:30;99241.25;;;18.54;82.92
18527;BME280;9393;42.158;24.748;2023-05-22T04:42:36;99243.75;;;19.01;80.56
18527;BME280;9393;42.158;24.748;2023-05-22T04:45:40;99237.22;;;18.91;80.57
18527;BME280;9393;42.158;24.748;2023-05-22T04:48:45;99244.34;;;19.03;80.60
18527;BME280;9393;42.158;24.748;2023-05-22T04:51:51;99235.59;;;18.96;80.87
18527;BME280;9393;42.158;24.748;2023-05-22T04:54:56;99241.28;;;19.52;78.37
18527;BME280;9393;42.158;24.748;2023-05-22T04:58:03;99240.00;;;19.88;76.89
18527;BME280;9393;42.158;24.748;2023-05-22T05:01:07;99240.84;;;19.75;77.75
18527;BME280;9393;42.158;24.748;2023-05-22T05:04:12;99242.31;;;19.32;80.34
18527;BME280;9393;42.158;24.748;2023-05-22T05:07:18;99238.66;;;19.33;79.85
18527;BME280;9393;42.158;24.748;2023-05-22T05:10:23;99249.63;;;19.56;79.13
18527;BME280;9393;42.158;24.748;2023-05-22T05:13:27;99246.59;;;19.46;79.73
18527;BME280;9393;42.158;24.748;2023-05-22T05:16:32;99241.28;;;19.52;79.49
18527;BME280;9393;42.158;24.748;2023-05-22T05:19:36;99245.19;;;19.43;79.17
18527;BME280;9393;42.158;24.748;2023-05-22T05:22:41;99252.69;;;19.40;79.11
18527;BME280;9393;42.158;24.748;2023-05-22T05:25:49;99248.00;;;19.55;78.41
18527;BME280;9393;42.158;24.748;2023-05-22T05:28:54;99249.56;;;19.76;77.95
18527;BME280;9393;42.158;24.748;2023-05-22T05:32:04;99249.59;;;19.69;78.66
18527;BME280;9393;42.158;24.748;2023-05-22T05:35:15;99245.53;;;19.73;78.18
18527;BME280;9393;42.158;24.748;2023-05-22T05:38:24;99253.84;;;19.83;77.38
18527;BME280;9393;42.158;24.748;2023-05-22T05:41:29;99253.78;;;19.96;76.81
18527;BME280;9393;42.158;24.748;2023-05-22T05:44:40;99261.41;;;19.66;77.75
18527;BME280;9393;42.158;24.748;2023-05-22T05:47:46;99265.47;;;19.82;77.78
18527;BME280;9393;42.158;24.748;2023-05-22T05:50:50;99270.72;;;19.95;76.89
18527;BME280;9393;42.158;24.748;2023-05-22T05:53:57;99274.56;;;19.99;76.88
18527;BME280;9393;42.158;24.748;2023-05-22T05:57:01;99276.53;;;20.24;76.14
18527;BME280;9393;42.158;24.748;2023-05-22T06:00:07;99279.97;;;20.37;75.49
18527;BME280;9393;42.158;24.748;2023-05-22T06:03:15;99277.63;;;20.54;75.13
18527;BME280;9393;42.158;24.748;2023-05-22T06:06:35;99279.66;;;20.52;75.12
18527;BME280;9393;42.158;24.748;2023-05-22T06:09:45;99288.63;;;20.89;73.58
18527;BME280;9393;42.158;24.748;2023-05-22T06:12:58;99274.94;;;21.23;72.04
18527;BME280;9393;42.158;24.748;2023-05-22T06:16:03;99287.06;;;21.12;70.86
18527;BME280;9393;42.158;24.748;2023-05-22T06:19:08;99296.38;;;21.22;69.60
18527;BME280;9393;42.158;24.748;2023-05-22T06:22:13;99300.44;;;22.46;66.12
18527;BME280;9393;42.158;24.748;2023-05-22T06:25:21;99303.00;;;22.53;66.26
18527;BME280;9393;42.158;24.748;2023-05-22T06:28:27;99286.44;;;22.69;65.10
18527;BME280;9393;42.158;24.748;2023-05-22T06:31:34;99296.53;;;23.32;61.40
18527;BME280;9393;42.158;24.748;2023-05-22T06:34:41;99291.16;;;23.61;58.58
18527;BME280;9393;42.158;24.748;2023-05-22T06:37:47;99299.69;;;23.87;58.39
18527;BME280;9393;42.158;24.748;2023-05-22T06:40:53;99306.91;;;23.75;59.26
18527;BME280;9393;42.158;24.748;2023-05-22T06:44:00;99303.44;;;23.74;56.49
18527;BME280;9393;42.158;24.748;2023-05-22T06:47:04;99309.75;;;23.27;57.82
18527;BME280;9393;42.158;24.748;2023-05-22T06:50:09;99306.91;;;23.10;57.83
18527;BME280;9393;42.158;24.748;2023-05-22T06:53:14;99306.47;;;23.25;57.10
18527;BME280;9393;42.158;24.748;2023-05-22T06:56:19;99301.44;;;24.16;56.32
18527;BME280;9393;42.158;24.748;2023-05-22T06:59:44;99305.50;;;23.95;53.29
18527;BME280;9393;42.158;24.748;2023-05-22T07:03:20;99299.19;;;24.25;54.23
18527;BME280;9393;42.158;24.748;2023-05-22T07:06:44;99299.75;;;24.38;52.71
18527;BME280;9393;42.158;24.748;2023-05-22T07:09:50;99302.94;;;24.52;52.77
18527;BME280;9393;42.158;24.748;2023-05-22T07:12:56;99304.91;;;25.13;51.77
18527;BME280;9393;42.158;24.748;2023-05-22T07:16:00;99299.50;;;24.96;50.54
18527;BME280;9393;42.158;24.748;2023-05-22T07:19:04;99307.72;;;24.78;51.32
18527;BME280;9393;42.158;24.748;2023-05-22T07:22:10;99301.94;;;24.70;52.21
18527;BME280;9393;42.158;24.748;2023-05-22T07:25:18;99300.75;;;24.77;52.01
18527;BME280;9393;42.158;24.748;2023-05-22T07:28:23;99297.59;;;24.80;52.91
18527;BME280;9393;42.158;24.748;2023-05-22T07:31:36;99303.59;;;24.99;51.75
18527;BME280;9393;42.158;24.748;2023-05-22T07:34:40;99300.28;;;25.08;51.29
18527;BME280;9393;42.158;24.748;2023-05-22T07:37:45;99305.28;;;25.22;51.11
18527;BME280;9393;42.158;24.748;2023-05-22T07:40:50;99308.59;;;25.29;50.52
18527;BME280;9393;42.158;24.748;2023-05-22T07:43:56;99305.47;;;25.65;49.98
18527;BME280;9393;42.158;24.748;2023-05-22T07:47:05;99306.75;;;26.39;48.35
18527;BME280;9393;42.158;24.748;2023-05-22T07:50:10;99307.94;;;26.27;47.14
18527;BME280;9393;42.158;24.748;2023-05-22T07:53:17;99299.97;;;25.72;46.49
18527;BME280;9393;42.158;24.748;2023-05-22T07:56:25;99302.63;;;25.22;46.13
18527;BME280;9393;42.158;24.748;2023-05-22T07:59:31;99306.56;;;24.74;48.11
18527;BME280;9393;42.158;24.748;2023-05-22T08:02:35;99304.13;;;24.84;46.93
18527;BME280;9393;42.158;24.748;2023-05-22T08:05:40;99302.56;;;25.33;45.83
18527;BME280;9393;42.158;24.748;2023-05-22T08:08:44;99293.72;;;25.33;44.52
18527;BME280;9393;42.158;24.748;2023-05-22T08:11:48;99304.53;;;25.54;43.71
18527;BME280;9393;42.158;24.748;2023-05-22T08:14:53;99299.28;;;25.48;44.45
18527;BME280;9393;42.158;24.748;2023-05-22T08:17:57;99298.50;;;25.31;44.55
18527;BME280;9393;42.158;24.748;2023-05-22T08:21:01;99294.50;;;25.00;44.89
18527;BME280;9393;42.158;24.748;2023-05-22T08:24:06;99301.88;;;25.76;44.41
18527;BME280;9393;42.158;24.748;2023-05-22T08:27:11;99300.09;;;26.03;42.18
18527;BME280;9393;42.158;24.748;2023-05-22T08:30:16;99298.50;;;26.68;42.50
18527;BME280;9393;42.158;24.748;2023-05-22T08:33:20;99297.25;;;26.27;41.25
18527;BME280;9393;42.158;24.748;2023-05-22T08:36:24;99297.19;;;27.24;39.68
18527;BME280;9393;42.158;24.748;2023-05-22T08:39:28;99299.09;;;27.65;38.88
18527;BME280;9393;42.158;24.748;2023-05-22T08:42:33;99298.44;;;27.48;39.53
18527;BME280;9393;42.158;24.748;2023-05-22T08:45:38;99293.56;;;27.08;39.25
18527;BME280;9393;42.158;24.748;2023-05-22T08:48:44;99300.97;;;26.96;39.86
18527;BME280;9393;42.158;24.748;2023-05-22T08:51:53;99298.91;;;26.81;40.98
18527;BME280;9393;42.158;24.748;2023-05-22T08:54:58;99295.50;;;27.18;39.74
18527;BME280;9393;42.158;24.748;2023-05-22T08:58:03;99292.22;;;27.05;40.01
18527;BME280;9393;42.158;24.748;2023-05-22T09:01:09;99289.09;;;27.19;40.44
18527;BME280;9393;42.158;24.748;2023-05-22T09:04:14;99290.44;;;27.16;40.96
18527;BME280;9393;42.158;24.748;2023-05-22T09:07:18;99287.44;;;26.16;41.46
18527;BME280;9393;42.158;24.748;2023-05-22T09:10:23;99292.84;;;25.60;43.19
18527;BME280;9393;42.158;24.748;2023-05-22T09:13:28;99282.25;;;25.32;44.10
18527;BME280;9393;42.158;24.748;2023-05-22T09:16:43;99279.56;;;25.49;44.01
18527;BME280;9393;42.158;24.748;2023-05-22T09:19:47;99272.81;;;26.18;43.08
18527;BME280;9393;42.158;24.748;2023-05-22T09:22:51;99273.78;;;26.12;43.50
18527;BME280;9393;42.158;24.748;2023-05-22T09:25:56;99282.59;;;25.91;43.58
18527;BME280;9393;42.158;24.748;2023-05-22T09:29:00;99275.88;;;26.80;42.12
18527;BME280;9393;42.158;24.748;2023-05-22T09:32:12;99283.22;;;26.41;43.13
18527;BME280;9393;42.158;24.748;2023-05-22T09:35:17;99277.44;;;26.06;43.18
18527;BME280;9393;42.158;24.748;2023-05-22T09:38:22;99279.00;;;25.63;43.71
18527;BME280;9393;42.158;24.748;2023-05-22T09:41:32;99279.19;;;26.17;43.04
18527;BME280;9393;42.158;24.748;2023-05-22T09:44:37;99277.75;;;27.06;41.83
18527;BME280;9393;42.158;24.748;2023-05-22T09:47:47;99273.50;;;26.30;40.86
18527;BME280;9393;42.158;24.748;2023-05-22T09:50:53;99268.50;;;25.40;42.68
18527;BME280;9393;42.158;24.748;2023-05-22T09:54:02;99274.94;;;25.78;41.95
18527;BME280;9393;42.158;24.748;2023-05-22T09:57:09;99258.13;;;25.44;42.59
18527;BME280;9393;42.158;24.748;2023-05-22T10:00:17;99260.28;;;26.02;41.96
18527;BME280;9393;42.158;24.748;2023-05-22T10:03:25;99262.59;;;26.15;42.90
18527;BME280;9393;42.158;24.748;2023-05-22T10:06:30;99262.31;;;25.73;42.76
18527;BME280;9393;42.158;24.748;2023-05-22T10:09:37;99251.47;;;26.01;41.97
18527;BME280;9393;42.158;24.748;2023-05-22T10:12:44;99259.81;;;25.50;41.94
18527;BME280;9393;42.158;24.748;2023-05-22T10:15:51;99254.44;;;25.83;41.66
18527;BME280;9393;42.158;24.748;2023-05-22T10:18:57;99256.69;;;25.91;41.98
18527;BME280;9393;42.158;24.748;2023-05-22T10:22:02;99245.16;;;26.56;41.21
18527;BME280;9393;42.158;24.748;2023-05-22T10:25:08;99242.69;;;27.40;39.40
18527;BME280;9393;42.158;24.748;2023-05-22T10:28:16;99247.19;;;27.71;38.12
18527;BME280;9393;42.158;24.748;2023-05-22T10:31:27;99239.75;;;26.78;38.52
18527;BME280;9393;42.158;24.748;2023-05-22T10:35:00;99256.16;;;27.13;38.84
18527;BME280;9393;42.158;24.748;2023-05-22T10:38:19;99247.16;;;27.29;37.30
18527;BME280;9393;42.158;24.748;2023-05-22T10:41:28;99241.88;;;27.39;37.42
18527;BME280;9393;42.158;24.748;2023-05-22T10:44:33;99244.66;;;28.06;36.55
18527;BME280;9393;42.158;24.748;2023-05-22T10:47:37;99244.94;;;27.53;37.46
18527;BME280;9393;42.158;24.748;2023-05-22T10:50:50;99232.19;;;27.75;36.77
18527;BME280;9393;42.158;24.748;2023-05-22T10:53:57;99236.91;;;28.10;36.52
18527;BME280;9393;42.158;24.748;2023-05-22T10:57:09;99220.22;;;28.75;35.77
18527;BME280;9393;42.158;24.748;2023-05-22T11:00:15;99216.59;;;28.34;35.95
18527;BME280;9393;42.158;24.748;2023-05-22T11:03:25;99217.94;;;28.27;35.40
18527;BME280;9393;42.158;24.748;2023-05-22T11:06:35;99205.66;;;28.41;35.33
18527;BME280;9393;42.158;24.748;2023-05-22T11:09:40;99198.88;;;28.13;36.26
18527;BME280;9393;42.158;24.748;2023-05-22T11:12:47;99207.75;;;28.24;33.96
18527;BME280;9393;42.158;24.748;2023-05-22T11:16:05;99206.47;;;27.32;34.73
18527;BME280;9393;42.158;24.748;2023-05-22T11:19:13;99202.16;;;27.68;35.53
18527;BME280;9393;42.158;24.748;2023-05-22T11:22:22;99209.75;;;27.02;36.04
18527;BME280;9393;42.158;24.748;2023-05-22T11:25:27;99201.16;;;27.00;35.97
18527;BME280;9393;42.158;24.748;2023-05-22T11:28:32;99198.47;;;27.00;36.07
18527;BME280;9393;42.158;24.748;2023-05-22T11:31:36;99208.28;;;27.22;35.91
18527;BME280;9393;42.158;24.748;2023-05-22T11:34:41;99214.53;;;27.00;35.84
18527;BME280;9393;42.158;24.748;2023-05-22T11:37:48;99212.72;;;26.47;36.71
18527;BME280;9393;42.158;24.748;2023-05-22T11:40:52;99231.00;;;26.12;36.99
18527;BME280;9393;42.158;24.748;2023-05-22T11:43:56;99258.63;;;25.07;43.44
18527;BME280;9393;42.158;24.748;2023-05-22T11:47:01;99262.41;;;23.98;53.67
18527;BME280;9393;42.158;24.748;2023-05-22T11:50:08;99273.03;;;23.05;58.81
18527;BME280;9393;42.158;24.748;2023-05-22T11:53:14;99272.69;;;22.42;62.58
18527;BME280;9393;42.158;24.748;2023-05-22T11:56:19;99287.44;;;21.84;73.61
18527;BME280;9393;42.158;24.748;2023-05-22T11:59:25;99279.38;;;21.54;68.33
18527;BME280;9393;42.158;24.748;2023-05-22T12:02:30;99271.34;;;21.60;66.80
18527;BME280;9393;42.158;24.748;2023-05-22T12:05:34;99260.31;;;22.00;68.26
18527;BME280;9393;42.158;24.748;2023-05-22T12:08:39;99250.28;;;22.20;69.72
18527;BME280;9393;42.158;24.748;2023-05-22T12:11:45;99241.50;;;22.20;69.12
18527;BME280;9393;42.158;24.748;2023-05-22T12:14:49;99237.00;;;22.50;68.32
18527;BME280;9393;42.158;24.748;2023-05-22T12:17:54;99240.03;;;22.53;68.89
18527;BME280;9393;42.158;24.748;2023-05-22T12:20:58;99239.00;;;22.54;66.97
18527;BME280;9393;42.158;24.748;2023-05-22T12:24:04;99241.31;;;22.62;67.63
18527;BME280;9393;42.158;24.748;2023-05-22T12:27:09;99231.91;;;22.67;68.68
18527;BME280;9393;42.158;24.748;2023-05-22T12:30:14;99239.31;;;22.76;69.54
18527;BME280;9393;42.158;24.748;2023-05-22T12:33:18;99237.25;;;22.78;68.33
18527;BME280;9393;42.158;24.748;2023-05-22T12:36:31;99232.97;;;22.77;67.57
18527;BME280;9393;42.158;24.748;2023-05-22T12:39:37;99240.28;;;22.82;67.37
18527;BME280;9393;42.158;24.748;2023-05-22T12:42:41;99229.75;;;22.87;68.06
18527;BME280;9393;42.158;24.748;2023-05-22T12:45:46;99226.84;;;22.58;69.85
18527;BME280;9393;42.158;24.748;2023-05-22T12:48:50;99232.72;;;22.49;70.67
18527;BME280;9393;42.158;24.748;2023-05-22T12:51:54;99236.19;;;22.20;71.24
18527;BME280;9393;42.158;24.748;2023-05-22T12:55:00;99236.06;;;21.96;72.54
18527;BME280;9393;42.158;24.748;2023-05-22T12:58:04;99232.59;;;22.74;69.79
18527;BME280;9393;42.158;24.748;2023-05-22T13:01:08;99235.13;;;23.45;68.06
18527;BME280;9393;42.158;24.748;2023-05-22T13:04:12;99221.88;;;24.36;66.68
18527;BME280;9393;42.158;24.748;2023-05-22T13:07:16;99221.78;;;24.76;61.24
18527;BME280;9393;42.158;24.748;2023-05-22T13:10:22;99222.69;;;24.65;56.95
18527;BME280;9393;42.158;24.748;2023-05-22T13:13:26;99222.81;;;24.87;56.45
18527;BME280;9393;42.158;24.748;2023-05-22T13:16:30;99220.03;;;25.32;54.33
18527;BME280;9393;42.158;24.748;2023-05-22T13:19:35;99232.50;;;25.26;54.97
18527;BME280;9393;42.158;24.748;2023-05-22T13:22:39;99232.28;;;24.66;55.48
18527;BME280;9393;42.158;24.748;2023-05-22T13:25:45;99219.53;;;24.68;54.83
18527;BME280;9393;42.158;24.748;2023-05-22T13:28:49;99217.44;;;25.53;54.96
18527;BME280;9393;42.158;24.748;2023-05-22T13:31:53;99218.56;;;25.57;55.54
18527;BME280;9393;42.158;24.748;2023-05-22T13:34:58;99212.91;;;25.76;54.34
18527;BME280;9393;42.158;24.748;2023-05-22T13:38:02;99207.84;;;25.74;54.92
18527;BME280;9393;42.158;24.748;2023-05-22T13:41:07;99213.06;;;26.07;50.96
18527;BME280;9393;42.158;24.748;2023-05-22T13:44:12;99205.75;;;26.20;51.66
18527;BME280;9393;42.158;24.748;2023-05-22T13:47:16;99205.84;;;25.48;51.52
18527;BME280;9393;42.158;24.748;2023-05-22T13:50:20;99197.88;;;24.64;50.66
18527;BME280;9393;42.158;24.748;2023-05-22T13:53:24;99200.03;;;24.51;52.58
18527;BME280;9393;42.158;24.748;2023-05-22T13:56:30;99191.88;;;24.86;51.82
18527;BME280;9393;42.158;24.748;2023-05-22T13:59:34;99189.44;;;24.84;50.94
18527;BME280;9393;42.158;24.748;2023-05-22T14:02:38;99197.97;;;24.86;52.55
18527;BME280;9393;42.158;24.748;2023-05-22T14:05:42;99198.72;;;24.98;53.52
18527;BME280;9393;42.158;24.748;2023-05-22T14:08:46;99192.16;;;25.23;54.05
18527;BME280;9393;42.158;24.748;2023-05-22T14:11:52;99198.22;;;25.73;53.96
18527;BME280;9393;42.158;24.748;2023-05-22T14:14:56;99192.84;;;25.35;55.69
18527;BME280;9393;42.158;24.748;2023-05-22T14:18:00;99188.66;;;24.72;56.11
18527;BME280;9393;42.158;24.748;2023-05-22T14:21:05;99185.19;;;24.72;53.95
18527;BME280;9393;42.158;24.748;2023-05-22T14:24:09;99175.63;;;24.76;52.27
18527;BME280;9393;42.158;24.748;2023-05-22T14:27:14;99184.75;;;25.46;47.36
18527;BME280;9393;42.158;24.748;2023-05-22T14:30:18;99183.03;;;25.02;46.84
18527;BME280;9393;42.158;24.748;2023-05-22T14:33:22;99173.03;;;24.92;47.39
18527;BME280;9393;42.158;24.748;2023-05-22T14:36:27;99169.75;;;24.57;51.74
18527;BME280;9393;42.158;24.748;2023-05-22T14:39:31;99180.50;;;24.05;62.20
18527;BME280;9393;42.158;24.748;2023-05-22T14:42:36;99181.34;;;23.54;64.50
18527;BME280;9393;42.158;24.748;2023-05-22T14:45:40;99182.25;;;23.37;64.73
18527;BME280;9393;42.158;24.748;2023-05-22T14:48:44;99181.56;;;23.30;64.24
18527;BME280;9393;42.158;24.748;2023-05-22T14:51:48;99178.44;;;22.98;64.22
18527;BME280;9393;42.158;24.748;2023-05-22T14:54:52;99179.25;;;23.22;62.89
18527;BME280;9393;42.158;24.748;2023-05-22T14:57:58;99177.59;;;24.19;59.38
18527;BME280;9393;42.158;24.748;2023-05-22T15:01:03;99174.19;;;23.83;60.23
18527;BME280;9393;42.158;24.748;2023-05-22T15:04:08;99175.00;;;23.84;60.38
18527;BME280;9393;42.158;24.748;2023-05-22T15:07:12;99179.94;;;23.63;60.93
18527;BME280;9393;42.158;24.748;2023-05-22T15:10:16;99177.88;;;23.54;59.42
18527;BME280;9393;42.158;24.748;2023-05-22T15:13:22;99173.44;;;23.59;58.72
18527;BME280;9393;42.158;24.748;2023-05-22T15:16:26;99186.78;;;23.13;59.29
18527;BME280;9393;42.158;24.748;2023-05-22T15:19:30;99185.97;;;23.47;59.67
18527;BME280;9393;42.158;24.748;2023-05-22T15:22:34;99199.72;;;23.33;60.68
18527;BME280;9393;42.158;24.748;2023-05-22T15:25:38;99188.13;;;23.04;64.28
18527;BME280;9393;42.158;24.748;2023-05-22T15:28:45;99199.34;;;22.94;64.21
18527;BME280;9393;42.158;24.748;2023-05-22T15:31:49;99197.63;;;22.58;66.29
18527;BME280;9393;42.158;24.748;2023-05-22T15:34:54;99202.50;;;22.61;66.01
18527;BME280;9393;42.158;24.748;2023-05-22T15:37:58;99200.63;;;22.62;64.34
18527;BME280;9393;42.158;24.748;2023-05-22T15:41:02;99214.81;;;22.44;65.23
18527;BME280;9393;42.158;24.748;2023-05-22T15:44:09;99222.13;;;22.31;65.58
18527;BME280;9393;42.158;24.748;2023-05-22T15:47:13;99227.41;;;22.19;66.74
18527;BME280;9393;42.158;24.748;2023-05-22T15:50:18;99232.06;;;22.24;67.79
18527;BME280;9393;42.158;24.748;2023-05-22T15:53:22;99240.69;;;22.37;67.70
18527;BME280;9393;42.158;24.748;2023-05-22T15:56:26;99232.88;;;22.54;67.13
18527;BME280;9393;42.158;24.748;2023-05-22T15:59:31;99228.53;;;22.41;67.87
18527;BME280;9393;42.158;24.748;2023-05-22T16:02:35;99220.88;;;22.63;66.93
18527;BME280;9393;42.158;24.748;2023-05-22T16:05:39;99230.06;;;22.67;67.05
18527;BME280;9393;42.158;24.748;2023-05-22T16:08:43;99225.06;;;23.24;65.62
18527;BME280;9393;42.158;24.748;2023-05-22T16:11:48;99225.91;;;23.47;64.01
18527;BME280;9393;42.158;24.748;2023-05-22T16:14:53;99226.81;;;23.41;64.29
18527;BME280;9393;42.158;24.748;2023-05-22T16:18:02;99222.91;;;23.44;63.96
18527;BME280;9393;42.158;24.748;2023-05-22T16:21:06;99233.72;;;23.19;63.82
18527;BME280;9393;42.158;24.748;2023-05-22T16:24:10;99229.94;;;22.74;62.71
18527;BME280;9393;42.158;24.748;2023-05-22T16:27:14;99232.75;;;22.31;62.25
18527;BME280;9393;42.158;24.748;2023-05-22T16:30:20;99233.13;;;22.64;62.16